sensor_id;sensor_type;location;lat;lon;timestamp;temperature;humidity
48162;DHT22;33950;48.154;16.316;2023-04-08T00:00:51;9.30;91.40
48162;DHT22;33950;48.154;16.316;2023-04-08T00:03:37;9.30;91.40
48162;DHT22;33950;48.154;16.316;2023-04-08T00:06:25;9.10;91.50
48162;DHT22;33950;48.154;16.316;2023-04-08T00:09:12;9.20;91.70
48162;DHT22;33950;48.154;16.316;2023-04-08T00:11:58;9.00;91.80
48162;DHT22;33950;48.154;16.316;2023-04-08T00:14:44;9.00;92.00
48162;DHT22;33950;48.154;16.316;2023-04-08T00:17:30;8.90;92.50
48162;DHT22;33950;48.154;16.316;2023-04-08T00:20:16;8.80;92.60
48162;DHT22;33950;48.154;16.316;2023-04-08T00:23:04;8.80;92.60
48162;DHT22;33950;48.154;16.316;2023-04-08T00:25:50;8.60;92.80
48162;DHT22;33950;48.154;16.316;2023-04-08T00:28:36;8.50;93.00
48162;DHT22;33950;48.154;16.316;2023-04-08T00:31:22;8.30;92.90
48162;DHT22;33950;48.154;16.316;2023-04-08T00:34:09;8.20;92.80
48162;DHT22;33950;48.154;16.316;2023-04-08T00:36:55;8.00;93.10
48162;DHT22;33950;48.154;16.316;2023-04-08T00:39:43;7.90;93.40
48162;DHT22;33950;48.154;16.316;2023-04-08T00:42:29;7.90;93.50
48162;DHT22;33950;48.154;16.316;2023-04-08T00:45:15;7.90;94.00
48162;DHT22;33950;48.154;16.316;2023-04-08T00:48:02;7.80;93.80
48162;DHT22;33950;48.154;16.316;2023-04-08T00:50:48;7.80;93.80
48162;DHT22;33950;48.154;16.316;2023-04-08T00:53:34;7.70;93.80
48162;DHT22;33950;48.154;16.316;2023-04-08T00:56:22;7.50;93.60
48162;DHT22;33950;48.154;16.316;2023-04-08T00:59:08;7.40;93.90
48162;DHT22;33950;48.154;16.316;2023-04-08T01:01:58;7.30;94.30
48162;DHT22;33950;48.154;16.316;2023-04-08T01:04:54;7.30;94.50
48162;DHT22;33950;48.154;16.316;2023-04-08T01:07:46;7.40;94.80
48162;DHT22;33950;48.154;16.316;2023-04-08T01:10:33;7.40;94.90
48162;DHT22;33950;48.154;16.316;2023-04-08T01:13:22;7.40;94.90
48162;DHT22;33950;48.154;16.316;2023-04-08T01:16:13;7.40;95.00
48162;DHT22;33950;48.154;16.316;2023-04-08T01:19:00;7.40;95.30
48162;DHT22;33950;48.154;16.316;2023-04-08T01:21:47;7.40;95.10
48162;DHT22;33950;48.154;16.316;2023-04-08T01:24:35;7.50;95.30
48162;DHT22;33950;48.154;16.316;2023-04-08T01:27:26;7.40;95.20
48162;DHT22;33950;48.154;16.316;2023-04-08T01:30:14;7.40;95.20
48162;DHT22;33950;48.154;16.316;2023-04-08T01:33:02;7.40;95.50
48162;DHT22;33950;48.154;16.316;2023-04-08T01:35:50;7.40;95.50
48162;DHT22;33950;48.154;16.316;2023-04-08T01:38:37;7.40;95.70
48162;DHT22;33950;48.154;16.316;2023-04-08T01:41:24;7.40;95.50
48162;DHT22;33950;48.154;16.316;2023-04-08T01:44:13;7.40;95.50
48162;DHT22;33950;48.154;16.316;2023-04-08T01:47:01;7.40;95.50
48162;DHT22;33950;48.154;16.316;2023-04-08T01:49:47;7.40;95.40
48162;DHT22;33950;48.154;16.316;2023-04-08T01:52:34;7.40;95.30
48162;DHT22;33950;48.154;16.316;2023-04-08T01:55:23;7.30;95.40
48162;DHT22;33950;48.154;16.316;2023-04-08T01:58:11;7.30;95.50
48162;DHT22;33950;48.154;16.316;2023-04-08T02:01:05;7.30;95.30
48162;DHT22;33950;48.154;16.316;2023-04-08T02:03:55;7.30;95.40
48162;DHT22;33950;48.154;16.316;2023-04-08T02:06:43;7.20;95.50
48162;DHT22;33950;48.154;16.316;2023-04-08T02:09:29;7.20;95.50
48162;DHT22;33950;48.154;16.316;2023-04-08T02:12:16;7.10;95.50
48162;DHT22;33950;48.154;16.316;2023-04-08T02:15:03;7.10;95.70
48162;DHT22;33950;48.154;16.316;2023-04-08T02:17:53;7.10;96.10
48162;DHT22;33950;48.154;16.316;2023-04-08T02:20:43;7.10;96.20
48162;DHT22;33950;48.154;16.316;2023-04-08T02:23:33;7.10;96.20
48162;DHT22;33950;48.154;16.316;2023-04-08T02:26:21;7.10;96.10
48162;DHT22;33950;48.154;16.316;2023-04-08T02:29:11;7.10;96.00
48162;DHT22;33950;48.154;16.316;2023-04-08T02:31:59;7.00;96.00
48162;DHT22;33950;48.154;16.316;2023-04-08T02:34:48;7.00;96.10
48162;DHT22;33950;48.154;16.316;2023-04-08T02:37:35;7.00;96.10
48162;DHT22;33950;48.154;16.316;2023-04-08T02:40:22;7.00;96.30
48162;DHT22;33950;48.154;16.316;2023-04-08T02:43:08;7.00;96.50
48162;DHT22;33950;48.154;16.316;2023-04-08T02:45:55;7.00;96.40
48162;DHT22;33950;48.154;16.316;2023-04-08T02:48:41;7.00;96.20
48162;DHT22;33950;48.154;16.316;2023-04-08T02:51:28;7.00;96.10
48162;DHT22;33950;48.154;16.316;2023-04-08T02:54:14;7.00;96.20
48162;DHT22;33950;48.154;16.316;2023-04-08T02:57:01;7.00;96.00
48162;DHT22;33950;48.154;16.316;2023-04-08T02:59:47;6.90;95.80
48162;DHT22;33950;48.154;16.316;2023-04-08T03:02:33;6.90;95.80
48162;DHT22;33950;48.154;16.316;2023-04-08T03:05:19;6.90;95.90
48162;DHT22;33950;48.154;16.316;2023-04-08T03:08:07;6.90;96.00
48162;DHT22;33950;48.154;16.316;2023-04-08T03:10:54;6.90;96.00
48162;DHT22;33950;48.154;16.316;2023-04-08T03:13:40;6.80;96.00
48162;DHT22;33950;48.154;16.316;2023-04-08T03:16:26;6.80;95.90
48162;DHT22;33950;48.154;16.316;2023-04-08T03:19:12;6.80;96.00
48162;DHT22;33950;48.154;16.316;2023-04-08T03:21:58;6.80;95.90
48162;DHT22;33950;48.154;16.316;2023-04-08T03:24:45;6.80;95.90
48162;DHT22;33950;48.154;16.316;2023-04-08T03:27:31;6.80;95.60
48162;DHT22;33950;48.154;16.316;2023-04-08T03:30:18;6.80;95.50
48162;DHT22;33950;48.154;16.316;2023-04-08T03:33:04;6.80;95.60
48162;DHT22;33950;48.154;16.316;2023-04-08T03:35:53;6.70;95.50
48162;DHT22;33950;48.154;16.316;2023-04-08T03:38:39;6.60;95.50
48162;DHT22;33950;48.154;16.316;2023-04-08T03:41:26;6.50;95.60
48162;DHT22;33950;48.154;16.316;2023-04-08T03:44:12;6.50;95.70
48162;DHT22;33950;48.154;16.316;2023-04-08T03:46:58;6.40;95.70
48162;DHT22;33950;48.154;16.316;2023-04-08T03:49:45;6.40;96.00
48162;DHT22;33950;48.154;16.316;2023-04-08T03:52:31;6.30;95.90
48162;DHT22;33950;48.154;16.316;2023-04-08T03:55:17;6.30;95.70
48162;DHT22;33950;48.154;16.316;2023-04-08T03:58:04;6.20;95.70
48162;DHT22;33950;48.154;16.316;2023-04-08T04:00:50;6.20;95.70
48162;DHT22;33950;48.154;16.316;2023-04-08T04:03:36;6.10;95.70
48162;DHT22;33950;48.154;16.316;2023-04-08T04:06:23;6.00;95.10
48162;DHT22;33950;48.154;16.316;2023-04-08T04:09:09;5.80;95.80
48162;DHT22;33950;48.154;16.316;2023-04-08T04:11:56;5.70;95.70
48162;DHT22;33950;48.154;16.316;2023-04-08T04:14:43;5.70;95.80
48162;DHT22;33950;48.154;16.316;2023-04-08T04:17:29;5.70;96.00
48162;DHT22;33950;48.154;16.316;2023-04-08T04:20:15;5.70;96.10
48162;DHT22;33950;48.154;16.316;2023-04-08T04:23:02;5.60;96.00
48162;DHT22;33950;48.154;16.316;2023-04-08T04:25:48;5.50;95.70
48162;DHT22;33950;48.154;16.316;2023-04-08T04:28:34;5.20;96.00
48162;DHT22;33950;48.154;16.316;2023-04-08T04:31:23;5.20;96.20
48162;DHT22;33950;48.154;16.316;2023-04-08T04:34:11;5.20;96.50
48162;DHT22;33950;48.154;16.316;2023-04-08T04:36:57;5.30;96.60
48162;DHT22;33950;48.154;16.316;2023-04-08T04:39:43;5.40;96.40
48162;DHT22;33950;48.154;16.316;2023-04-08T04:42:29;5.50;96.20
48162;DHT22;33950;48.154;16.316;2023-04-08T04:45:15;5.40;95.80
48162;DHT22;33950;48.154;16.316;2023-04-08T04:48:03;5.10;95.90
48162;DHT22;33950;48.154;16.316;2023-04-08T04:50:54;4.90;96.40
48162;DHT22;33950;48.154;16.316;2023-04-08T04:53:40;5.00;96.90
48162;DHT22;33950;48.154;16.316;2023-04-08T04:56:26;5.10;96.80
48162;DHT22;33950;48.154;16.316;2023-04-08T04:59:12;5.20;96.70
48162;DHT22;33950;48.154;16.316;2023-04-08T05:01:58;5.10;96.60
48162;DHT22;33950;48.154;16.316;2023-04-08T05:04:46;5.00;96.70
48162;DHT22;33950;48.154;16.316;2023-04-08T05:07:34;4.80;97.20
48162;DHT22;33950;48.154;16.316;2023-04-08T05:10:21;4.70;97.60
48162;DHT22;33950;48.154;16.316;2023-04-08T05:13:07;4.70;97.80
48162;DHT22;33950;48.154;16.316;2023-04-08T05:15:53;4.60;98.30
48162;DHT22;33950;48.154;16.316;2023-04-08T05:18:39;4.60;98.30
48162;DHT22;33950;48.154;16.316;2023-04-08T05:21:27;4.60;98.40
48162;DHT22;33950;48.154;16.316;2023-04-08T05:24:13;4.60;98.40
48162;DHT22;33950;48.154;16.316;2023-04-08T05:26:59;4.70;98.70
48162;DHT22;33950;48.154;16.316;2023-04-08T05:29:46;4.80;98.80
48162;DHT22;33950;48.154;16.316;2023-04-08T05:32:32;4.80;98.90
48162;DHT22;33950;48.154;16.316;2023-04-08T05:35:18;4.90;98.90
48162;DHT22;33950;48.154;16.316;2023-04-08T05:38:05;4.90;98.60
48162;DHT22;33950;48.154;16.316;2023-04-08T05:40:52;4.90;98.60
48162;DHT22;33950;48.154;16.316;2023-04-08T05:43:38;4.90;98.80
48162;DHT22;33950;48.154;16.316;2023-04-08T05:46:24;4.90;99.10
48162;DHT22;33950;48.154;16.316;2023-04-08T05:49:10;4.80;99.10
48162;DHT22;33950;48.154;16.316;2023-04-08T05:51:57;4.90;99.30
48162;DHT22;33950;48.154;16.316;2023-04-08T05:54:44;5.00;99.10
48162;DHT22;33950;48.154;16.316;2023-04-08T05:57:30;5.10;99.10
48162;DHT22;33950;48.154;16.316;2023-04-08T06:00:16;5.10;98.90
48162;DHT22;33950;48.154;16.316;2023-04-08T06:03:02;5.20;98.80
48162;DHT22;33950;48.154;16.316;2023-04-08T06:05:49;5.10;98.60
48162;DHT22;33950;48.154;16.316;2023-04-08T06:08:35;5.00;98.70
48162;DHT22;33950;48.154;16.316;2023-04-08T06:11:22;5.00;98.80
48162;DHT22;33950;48.154;16.316;2023-04-08T06:14:08;5.00;98.70
48162;DHT22;33950;48.154;16.316;2023-04-08T06:16:54;4.90;98.80
48162;DHT22;33950;48.154;16.316;2023-04-08T06:19:41;4.90;98.80
48162;DHT22;33950;48.154;16.316;2023-04-08T06:22:28;4.80;98.80
48162;DHT22;33950;48.154;16.316;2023-04-08T06:25:14;4.80;98.90
48162;DHT22;33950;48.154;16.316;2023-04-08T06:28:01;4.80;98.90
48162;DHT22;33950;48.154;16.316;2023-04-08T06:30:48;4.80;98.70
48162;DHT22;33950;48.154;16.316;2023-04-08T06:33:34;4.60;99.00
48162;DHT22;33950;48.154;16.316;2023-04-08T06:36:20;4.60;99.10
48162;DHT22;33950;48.154;16.316;2023-04-08T06:39:06;4.60;99.20
48162;DHT22;33950;48.154;16.316;2023-04-08T06:41:52;4.70;99.60
48162;DHT22;33950;48.154;16.316;2023-04-08T06:44:41;4.80;99.40
48162;DHT22;33950;48.154;16.316;2023-04-08T06:47:27;4.80;99.20
48162;DHT22;33950;48.154;16.316;2023-04-08T06:50:13;4.90;99.40
48162;DHT22;33950;48.154;16.316;2023-04-08T06:52:59;4.90;99.60
48162;DHT22;33950;48.154;16.316;2023-04-08T06:55:45;5.00;99.60
48162;DHT22;33950;48.154;16.316;2023-04-08T06:58:31;5.10;99.40
48162;DHT22;33950;48.154;16.316;2023-04-08T07:01:19;5.10;99.30
48162;DHT22;33950;48.154;16.316;2023-04-08T07:04:05;4.60;99.30
48162;DHT22;33950;48.154;16.316;2023-04-08T07:06:51;5.00;99.40
48162;DHT22;33950;48.154;16.316;2023-04-08T07:09:37;5.10;99.60
48162;DHT22;33950;48.154;16.316;2023-04-08T07:12:23;5.10;99.40
48162;DHT22;33950;48.154;16.316;2023-04-08T07:15:10;5.10;99.40
48162;DHT22;33950;48.154;16.316;2023-04-08T07:17:57;5.10;99.30
48162;DHT22;33950;48.154;16.316;2023-04-08T07:20:44;5.10;99.20
48162;DHT22;33950;48.154;16.316;2023-04-08T07:23:31;5.10;99.50
48162;DHT22;33950;48.154;16.316;2023-04-08T07:26:17;5.20;99.60
48162;DHT22;33950;48.154;16.316;2023-04-08T07:29:03;5.20;99.50
48162;DHT22;33950;48.154;16.316;2023-04-08T07:31:49;5.20;99.70
48162;DHT22;33950;48.154;16.316;2023-04-08T07:34:37;5.20;99.80
48162;DHT22;33950;48.154;16.316;2023-04-08T07:37:24;5.20;99.90
48162;DHT22;33950;48.154;16.316;2023-04-08T07:40:10;5.30;99.90
48162;DHT22;33950;48.154;16.316;2023-04-08T07:42:57;5.40;99.80
48162;DHT22;33950;48.154;16.316;2023-04-08T07:45:43;5.60;99.90
48162;DHT22;33950;48.154;16.316;2023-04-08T07:48:29;5.90;99.90
48162;DHT22;33950;48.154;16.316;2023-04-08T07:51:17;6.10;99.20
48162;DHT22;33950;48.154;16.316;2023-04-08T07:54:03;6.00;99.30
48162;DHT22;33950;48.154;16.316;2023-04-08T07:56:49;6.10;98.70
48162;DHT22;33950;48.154;16.316;2023-04-08T07:59:35;6.00;98.90
48162;DHT22;33950;48.154;16.316;2023-04-08T08:02:21;6.20;98.80
48162;DHT22;33950;48.154;16.316;2023-04-08T08:05:08;6.20;98.50
48162;DHT22;33950;48.154;16.316;2023-04-08T08:07:55;6.30;98.70
48162;DHT22;33950;48.154;16.316;2023-04-08T08:10:41;6.30;98.50
48162;DHT22;33950;48.154;16.316;2023-04-08T08:13:28;6.40;98.80
48162;DHT22;33950;48.154;16.316;2023-04-08T08:16:14;6.60;98.30
48162;DHT22;33950;48.154;16.316;2023-04-08T08:19:00;6.70;98.20
48162;DHT22;33950;48.154;16.316;2023-04-08T08:21:46;6.80;97.90
48162;DHT22;33950;48.154;16.316;2023-04-08T08:24:33;6.70;97.50
48162;DHT22;33950;48.154;16.316;2023-04-08T08:27:19;6.70;97.30
48162;DHT22;33950;48.154;16.316;2023-04-08T08:30:07;6.60;97.00
48162;DHT22;33950;48.154;16.316;2023-04-08T08:32:54;6.60;97.20
48162;DHT22;33950;48.154;16.316;2023-04-08T08:35:41;6.60;97.20
48162;DHT22;33950;48.154;16.316;2023-04-08T08:38:27;6.60;97.40
48162;DHT22;33950;48.154;16.316;2023-04-08T08:41:14;6.70;97.50
48162;DHT22;33950;48.154;16.316;2023-04-08T08:44:01;6.70;97.20
48162;DHT22;33950;48.154;16.316;2023-04-08T08:46:47;6.70;97.30
48162;DHT22;33950;48.154;16.316;2023-04-08T08:49:34;6.80;97.80
48162;DHT22;33950;48.154;16.316;2023-04-08T08:52:20;7.00;97.50
48162;DHT22;33950;48.154;16.316;2023-04-08T08:55:07;7.00;96.90
48162;DHT22;33950;48.154;16.316;2023-04-08T08:57:54;6.90;96.80
48162;DHT22;33950;48.154;16.316;2023-04-08T09:00:41;6.90;97.30
48162;DHT22;33950;48.154;16.316;2023-04-08T09:03:29;6.90;97.60
48162;DHT22;33950;48.154;16.316;2023-04-08T09:06:17;6.90;97.70
48162;DHT22;33950;48.154;16.316;2023-04-08T09:09:03;7.00;97.90
48162;DHT22;33950;48.154;16.316;2023-04-08T09:12:02;7.00;98.00
48162;DHT22;33950;48.154;16.316;2023-04-08T09:15:02;7.00;98.30
48162;DHT22;33950;48.154;16.316;2023-04-08T09:17:48;7.00;97.70
48162;DHT22;33950;48.154;16.316;2023-04-08T09:20:34;6.90;97.70
48162;DHT22;33950;48.154;16.316;2023-04-08T09:23:23;7.00;98.50
48162;DHT22;33950;48.154;16.316;2023-04-08T09:26:10;7.20;98.00
48162;DHT22;33950;48.154;16.316;2023-04-08T09:28:58;7.30;97.90
48162;DHT22;33950;48.154;16.316;2023-04-08T09:31:45;7.30;97.50
48162;DHT22;33950;48.154;16.316;2023-04-08T09:34:32;7.20;97.50
48162;DHT22;33950;48.154;16.316;2023-04-08T09:37:19;7.20;97.70
48162;DHT22;33950;48.154;16.316;2023-04-08T09:40:06;7.20;97.80
48162;DHT22;33950;48.154;16.316;2023-04-08T09:42:54;7.20;97.80
48162;DHT22;33950;48.154;16.316;2023-04-08T09:45:42;7.30;97.70
48162;DHT22;33950;48.154;16.316;2023-04-08T09:48:35;7.30;97.50
48162;DHT22;33950;48.154;16.316;2023-04-08T09:51:24;7.20;97.50
48162;DHT22;33950;48.154;16.316;2023-04-08T09:54:18;7.20;98.00
48162;DHT22;33950;48.154;16.316;2023-04-08T09:57:09;7.30;98.00
48162;DHT22;33950;48.154;16.316;2023-04-08T10:00:04;7.40;97.90
48162;DHT22;33950;48.154;16.316;2023-04-08T10:02:57;7.50;97.90
48162;DHT22;33950;48.154;16.316;2023-04-08T10:05:46;7.60;97.80
48162;DHT22;33950;48.154;16.316;2023-04-08T10:08:34;7.50;97.70
48162;DHT22;33950;48.154;16.316;2023-04-08T10:11:20;7.60;97.80
48162;DHT22;33950;48.154;16.316;2023-04-08T10:14:08;7.60;97.80
48162;DHT22;33950;48.154;16.316;2023-04-08T10:17:24;7.60;97.60
48162;DHT22;33950;48.154;16.316;2023-04-08T10:20:42;7.60;97.60
48162;DHT22;33950;48.154;16.316;2023-04-08T10:23:54;7.50;97.00
48162;DHT22;33950;48.154;16.316;2023-04-08T10:26:42;7.40;97.00
48162;DHT22;33950;48.154;16.316;2023-04-08T10:29:32;7.40;96.60
48162;DHT22;33950;48.154;16.316;2023-04-08T10:32:27;7.30;96.50
48162;DHT22;33950;48.154;16.316;2023-04-08T10:35:14;7.20;97.00
48162;DHT22;33950;48.154;16.316;2023-04-08T10:38:01;7.30;97.30
48162;DHT22;33950;48.154;16.316;2023-04-08T10:40:49;7.30;97.20
48162;DHT22;33950;48.154;16.316;2023-04-08T10:43:36;7.20;97.50
48162;DHT22;33950;48.154;16.316;2023-04-08T10:46:22;7.20;97.10
48162;DHT22;33950;48.154;16.316;2023-04-08T10:49:08;7.20;96.90
48162;DHT22;33950;48.154;16.316;2023-04-08T10:51:54;7.10;96.70
48162;DHT22;33950;48.154;16.316;2023-04-08T10:54:45;7.00;96.90
48162;DHT22;33950;48.154;16.316;2023-04-08T10:57:34;7.20;97.30
48162;DHT22;33950;48.154;16.316;2023-04-08T11:00:31;7.30;97.10
48162;DHT22;33950;48.154;16.316;2023-04-08T11:03:18;7.30;97.10
48162;DHT22;33950;48.154;16.316;2023-04-08T11:06:04;7.40;97.10
48162;DHT22;33950;48.154;16.316;2023-04-08T11:08:52;7.40;96.90
48162;DHT22;33950;48.154;16.316;2023-04-08T11:11:39;7.40;97.10
48162;DHT22;33950;48.154;16.316;2023-04-08T11:14:28;7.50;97.20
48162;DHT22;33950;48.154;16.316;2023-04-08T11:17:14;7.50;97.10
48162;DHT22;33950;48.154;16.316;2023-04-08T11:20:01;7.50;97.10
48162;DHT22;33950;48.154;16.316;2023-04-08T11:22:51;7.60;97.20
48162;DHT22;33950;48.154;16.316;2023-04-08T11:25:37;7.60;97.20
48162;DHT22;33950;48.154;16.316;2023-04-08T11:28:24;7.60;97.00
48162;DHT22;33950;48.154;16.316;2023-04-08T11:31:21;7.70;97.00
48162;DHT22;33950;48.154;16.316;2023-04-08T11:34:10;7.60;96.80
48162;DHT22;33950;48.154;16.316;2023-04-08T11:36:56;7.70;97.00
48162;DHT22;33950;48.154;16.316;2023-04-08T11:39:43;7.70;96.80
48162;DHT22;33950;48.154;16.316;2023-04-08T11:42:31;7.70;96.60
48162;DHT22;33950;48.154;16.316;2023-04-08T11:45:19;7.70;96.70
48162;DHT22;33950;48.154;16.316;2023-04-08T11:48:11;7.70;96.80
48162;DHT22;33950;48.154;16.316;2023-04-08T11:51:02;7.70;96.60
48162;DHT22;33950;48.154;16.316;2023-04-08T11:53:49;7.60;96.60
48162;DHT22;33950;48.154;16.316;2023-04-08T11:56:44;7.60;96.90
48162;DHT22;33950;48.154;16.316;2023-04-08T11:59:31;7.70;96.80
48162;DHT22;33950;48.154;16.316;2023-04-08T12:02:17;7.70;96.40
48162;DHT22;33950;48.154;16.316;2023-04-08T12:05:05;7.70;96.50
48162;DHT22;33950;48.154;16.316;2023-04-08T12:07:52;7.70;96.40
48162;DHT22;33950;48.154;16.316;2023-04-08T12:10:38;7.70;96.50
48162;DHT22;33950;48.154;16.316;2023-04-08T12:13:24;7.70;96.30
48162;DHT22;33950;48.154;16.316;2023-04-08T12:16:10;7.70;96.30
48162;DHT22;33950;48.154;16.316;2023-04-08T12:18:57;7.80;96.20
48162;DHT22;33950;48.154;16.316;2023-04-08T12:21:44;7.80;96.00
48162;DHT22;33950;48.154;16.316;2023-04-08T12:24:30;7.80;96.00
48162;DHT22;33950;48.154;16.316;2023-04-08T12:27:17;7.90;96.00
48162;DHT22;33950;48.154;16.316;2023-04-08T12:30:03;7.90;96.00
48162;DHT22;33950;48.154;16.316;2023-04-08T12:32:50;8.00;95.80
48162;DHT22;33950;48.154;16.316;2023-04-08T12:35:38;7.90;94.90
48162;DHT22;33950;48.154;16.316;2023-04-08T12:38:25;7.80;94.70
48162;DHT22;33950;48.154;16.316;2023-04-08T12:41:11;7.60;94.70
48162;DHT22;33950;48.154;16.316;2023-04-08T12:43:58;7.50;94.90
48162;DHT22;33950;48.154;16.316;2023-04-08T12:46:44;7.40;95.20
48162;DHT22;33950;48.154;16.316;2023-04-08T12:49:30;7.40;95.10
48162;DHT22;33950;48.154;16.316;2023-04-08T12:52:16;7.40;94.90
48162;DHT22;33950;48.154;16.316;2023-04-08T12:55:05;7.40;94.80
48162;DHT22;33950;48.154;16.316;2023-04-08T12:57:52;7.40;94.90
48162;DHT22;33950;48.154;16.316;2023-04-08T13:00:38;7.50;95.10
48162;DHT22;33950;48.154;16.316;2023-04-08T13:03:24;7.50;94.90
48162;DHT22;33950;48.154;16.316;2023-04-08T13:06:13;7.50;95.10
48162;DHT22;33950;48.154;16.316;2023-04-08T13:08:59;7.60;94.90
48162;DHT22;33950;48.154;16.316;2023-04-08T13:11:46;7.60;95.20
48162;DHT22;33950;48.154;16.316;2023-04-08T13:14:33;7.70;95.20
48162;DHT22;33950;48.154;16.316;2023-04-08T13:17:19;7.80;94.90
48162;DHT22;33950;48.154;16.316;2023-04-08T13:20:06;7.80;94.60
48162;DHT22;33950;48.154;16.316;2023-04-08T13:22:54;7.80;94.90
48162;DHT22;33950;48.154;16.316;2023-04-08T13:25:40;7.70;94.80
48162;DHT22;33950;48.154;16.316;2023-04-08T13:28:28;7.70;94.90
48162;DHT22;33950;48.154;16.316;2023-04-08T13:31:14;7.80;95.10
48162;DHT22;33950;48.154;16.316;2023-04-08T13:34:00;8.00;95.10
48162;DHT22;33950;48.154;16.316;2023-04-08T13:36:46;8.10;94.60
48162;DHT22;33950;48.154;16.316;2023-04-08T13:39:32;8.10;94.70
48162;DHT22;33950;48.154;16.316;2023-04-08T13:42:18;8.20;94.70
48162;DHT22;33950;48.154;16.316;2023-04-08T13:45:07;8.30;94.10
48162;DHT22;33950;48.154;16.316;2023-04-08T13:47:53;8.20;93.70
48162;DHT22;33950;48.154;16.316;2023-04-08T13:50:39;8.30;94.10
48162;DHT22;33950;48.154;16.316;2023-04-08T13:53:26;8.40;93.80
48162;DHT22;33950;48.154;16.316;2023-04-08T13:56:12;8.40;93.10
48162;DHT22;33950;48.154;16.316;2023-04-08T13:58:58;8.40;93.10
48162;DHT22;33950;48.154;16.316;2023-04-08T14:01:46;8.60;93.40
48162;DHT22;33950;48.154;16.316;2023-04-08T14:04:32;8.50;92.90
48162;DHT22;33950;48.154;16.316;2023-04-08T14:07:18;8.50;93.30
48162;DHT22;33950;48.154;16.316;2023-04-08T14:10:05;8.50;93.00
48162;DHT22;33950;48.154;16.316;2023-04-08T14:12:53;8.30;93.10
48162;DHT22;33950;48.154;16.316;2023-04-08T14:15:39;8.30;93.10
48162;DHT22;33950;48.154;16.316;2023-04-08T14:18:26;8.50;93.40
48162;DHT22;33950;48.154;16.316;2023-04-08T14:21:13;8.60;92.80
48162;DHT22;33950;48.154;16.316;2023-04-08T14:24:00;8.50;92.70
48162;DHT22;33950;48.154;16.316;2023-04-08T14:26:46;8.50;92.60
48162;DHT22;33950;48.154;16.316;2023-04-08T14:29:32;8.50;92.90
48162;DHT22;33950;48.154;16.316;2023-04-08T14:32:18;8.50;92.90
48162;DHT22;33950;48.154;16.316;2023-04-08T14:35:06;8.50;92.80
48162;DHT22;33950;48.154;16.316;2023-04-08T14:37:53;8.30;92.40
48162;DHT22;33950;48.154;16.316;2023-04-08T14:40:39;8.30;92.70
48162;DHT22;33950;48.154;16.316;2023-04-08T14:43:25;8.30;92.70
48162;DHT22;33950;48.154;16.316;2023-04-08T14:46:11;8.30;93.00
48162;DHT22;33950;48.154;16.316;2023-04-08T14:48:57;8.30;92.90
48162;DHT22;33950;48.154;16.316;2023-04-08T14:51:45;8.30;92.90
48162;DHT22;33950;48.154;16.316;2023-04-08T14:54:31;8.20;93.10
48162;DHT22;33950;48.154;16.316;2023-04-08T14:57:17;8.00;93.40
48162;DHT22;33950;48.154;16.316;2023-04-08T15:00:04;7.80;93.70
48162;DHT22;33950;48.154;16.316;2023-04-08T15:02:50;7.60;93.90
48162;DHT22;33950;48.154;16.316;2023-04-08T15:05:36;7.50;94.20
48162;DHT22;33950;48.154;16.316;2023-04-08T15:08:24;7.50;94.30
48162;DHT22;33950;48.154;16.316;2023-04-08T15:11:10;7.50;94.30
48162;DHT22;33950;48.154;16.316;2023-04-08T15:13:56;7.50;94.40
48162;DHT22;33950;48.154;16.316;2023-04-08T15:16:43;7.60;94.50
48162;DHT22;33950;48.154;16.316;2023-04-08T15:19:29;7.70;94.10
48162;DHT22;33950;48.154;16.316;2023-04-08T15:22:15;7.60;94.20
48162;DHT22;33950;48.154;16.316;2023-04-08T15:25:03;7.60;94.20
48162;DHT22;33950;48.154;16.316;2023-04-08T15:27:50;7.70;94.20
48162;DHT22;33950;48.154;16.316;2023-04-08T15:30:36;7.80;94.10
48162;DHT22;33950;48.154;16.316;2023-04-08T15:33:22;8.20;94.10
48162;DHT22;33950;48.154;16.316;2023-04-08T15:36:08;7.80;93.90
48162;DHT22;33950;48.154;16.316;2023-04-08T15:38:54;7.80;93.90
48162;DHT22;33950;48.154;16.316;2023-04-08T15:41:42;7.70;94.10
48162;DHT22;33950;48.154;16.316;2023-04-08T15:44:30;7.50;94.30
48162;DHT22;33950;48.154;16.316;2023-04-08T15:47:17;7.40;94.50
48162;DHT22;33950;48.154;16.316;2023-04-08T15:50:03;7.30;94.50
48162;DHT22;33950;48.154;16.316;2023-04-08T15:52:49;7.40;94.50
48162;DHT22;33950;48.154;16.316;2023-04-08T15:55:39;7.30;94.60
48162;DHT22;33950;48.154;16.316;2023-04-08T15:58:27;7.30;94.80
48162;DHT22;33950;48.154;16.316;2023-04-08T16:01:13;7.30;94.90
48162;DHT22;33950;48.154;16.316;2023-04-08T16:04:00;7.30;95.20
48162;DHT22;33950;48.154;16.316;2023-04-08T16:06:46;7.30;95.10
48162;DHT22;33950;48.154;16.316;2023-04-08T16:09:32;7.30;95.00
48162;DHT22;33950;48.154;16.316;2023-04-08T16:12:18;7.40;95.00
48162;DHT22;33950;48.154;16.316;2023-04-08T16:15:07;7.40;94.90
48162;DHT22;33950;48.154;16.316;2023-04-08T16:17:53;7.40;95.10
48162;DHT22;33950;48.154;16.316;2023-04-08T16:20:39;7.40;95.10
48162;DHT22;33950;48.154;16.316;2023-04-08T16:23:25;7.30;95.10
48162;DHT22;33950;48.154;16.316;2023-04-08T16:26:11;7.30;95.30
48162;DHT22;33950;48.154;16.316;2023-04-08T16:28:58;7.30;95.40
48162;DHT22;33950;48.154;16.316;2023-04-08T16:31:46;7.20;95.60
48162;DHT22;33950;48.154;16.316;2023-04-08T16:34:32;7.20;95.90
48162;DHT22;33950;48.154;16.316;2023-04-08T16:37:18;7.20;95.90
48162;DHT22;33950;48.154;16.316;2023-04-08T16:40:05;7.20;96.00
48162;DHT22;33950;48.154;16.316;2023-04-08T16:42:51;7.10;96.20
48162;DHT22;33950;48.154;16.316;2023-04-08T16:45:37;7.10;96.30
48162;DHT22;33950;48.154;16.316;2023-04-08T16:48:26;7.10;96.60
48162;DHT22;33950;48.154;16.316;2023-04-08T16:51:12;7.10;96.60
48162;DHT22;33950;48.154;16.316;2023-04-08T16:53:58;7.00;96.60
48162;DHT22;33950;48.154;16.316;2023-04-08T16:56:44;7.00;97.10
48162;DHT22;33950;48.154;16.316;2023-04-08T16:59:31;7.00;96.80
48162;DHT22;33950;48.154;16.316;2023-04-08T17:02:17;7.00;96.80
48162;DHT22;33950;48.154;16.316;2023-04-08T17:05:05;7.00;96.90
48162;DHT22;33950;48.154;16.316;2023-04-08T17:07:51;7.00;97.20
48162;DHT22;33950;48.154;16.316;2023-04-08T17:10:37;7.00;97.40
48162;DHT22;33950;48.154;16.316;2023-04-08T17:13:23;7.00;97.50
48162;DHT22;33950;48.154;16.316;2023-04-08T17:16:11;6.90;97.70
48162;DHT22;33950;48.154;16.316;2023-04-08T17:18:58;6.90;97.80
48162;DHT22;33950;48.154;16.316;2023-04-08T17:21:45;6.90;97.90
48162;DHT22;33950;48.154;16.316;2023-04-08T17:24:31;6.80;98.20
48162;DHT22;33950;48.154;16.316;2023-04-08T17:27:17;6.80;98.30
48162;DHT22;33950;48.154;16.316;2023-04-08T17:30:04;6.60;98.50
48162;DHT22;33950;48.154;16.316;2023-04-08T17:32:52;6.60;98.70
48162;DHT22;33950;48.154;16.316;2023-04-08T17:35:38;6.70;99.40